sensor_id;sensor_type;location;lat;lon;timestamp;pressure;altitude;pressure_sealevel;temperature;humidity
52935;BME280;38802;50.198;19.796;2022-12-07T00:01:41;95621.30;;;-0.39;100.00
52935;BME280;38802;50.198;19.796;2022-12-07T00:04:12;95619.42;;;-0.39;100.00
52935;BME280;38802;50.198;19.796;2022-12-07T00:06:41;95623.35;;;-0.39;100.00
52935;BME280;38802;50.198;19.796;2022-12-07T00:09:12;95623.00;;;-0.39;100.00
52935;BME280;38802;50.198;19.796;2022-12-07T00:11:39;95619.35;;;-0.37;100.00
52935;BME280;38802;50.198;19.796;2022-12-07T00:14:08;95622.05;;;-0.37;100.00
52935;BME280;38802;50.198;19.796;2022-12-07T00:16:36;95624.77;;;-0.37;100.00
52935;BME280;38802;50.198;19.796;2022-12-07T00:19:04;95624.74;;;-0.36;100.00
52935;BME280;38802;50.198;19.796;2022-12-07T00:21:33;95625.83;;;-0.34;100.00
52935;BME280;38802;50.198;19.796;2022-12-07T00:24:01;95624.98;;;-0.34;100.00
52935;BME280;38802;50.198;19.796;2022-12-07T00:26:33;95621.19;;;-0.34;100.00
52935;BME280;38802;50.198;19.796;2022-12-07T00:29:03;95618.11;;;-0.33;100.00
52935;BME280;38802;50.198;19.796;2022-12-07T00:31:34;95619.68;;;-0.34;100.00
52935;BME280;38802;50.198;19.796;2022-12-07T00:34:02;95618.30;;;-0.34;100.00
52935;BME280;38802;50.198;19.796;2022-12-07T00:36:29;95618.49;;;-0.34;100.00
52935;BME280;38802;50.198;19.796;2022-12-07T00:38:57;95620.96;;;-0.32;100.00
52935;BME280;38802;50.198;19.796;2022-12-07T00:41:26;95619.59;;;-0.32;100.00
52935;BME280;38802;50.198;19.796;2022-12-07T00:43:53;95620.26;;;-0.32;100.00
52935;BME280;38802;50.198;19.796;2022-12-07T00:46:21;95617.91;;;-0.33;100.00
52935;BME280;38802;50.198;19.796;2022-12-07T00:48:48;95615.37;;;-0.33;100.00
52935;BME280;38802;50.198;19.796;2022-12-07T00:51:17;95612.45;;;-0.33;100.00
52935;BME280;38802;50.198;19.796;2022-12-07T00:53:45;95615.32;;;-0.32;100.00
52935;BME280;38802;50.198;19.796;2022-12-07T00:56:14;95617.21;;;-0.33;100.00
52935;BME280;38802;50.198;19.796;2022-12-07T00:58:41;95614.33;;;-0.33;100.00
52935;BME280;38802;50.198;19.796;2022-12-07T01:01:09;95615.41;;;-0.34;100.00
52935;BME280;38802;50.198;19.796;2022-12-07T01:03:37;95614.38;;;-0.34;100.00
52935;BME280;38802;50.198;19.796;2022-12-07T01:06:05;95613.16;;;-0.34;100.00
52935;BME280;38802;50.198;19.796;2022-12-07T01:08:32;95611.63;;;-0.33;100.00
52935;BME280;38802;50.198;19.796;2022-12-07T01:11:01;95609.45;;;-0.34;100.00
52935;BME280;38802;50.198;19.796;2022-12-07T01:13:28;95611.86;;;-0.35;100.00
52935;BME280;38802;50.198;19.796;2022-12-07T01:16:00;95609.14;;;-0.35;100.00
52935;BME280;38802;50.198;19.796;2022-12-07T01:18:28;95606.05;;;-0.35;100.00
52935;BME280;38802;50.198;19.796;2022-12-07T01:21:03;95606.92;;;-0.35;100.00
52935;BME280;38802;50.198;19.796;2022-12-07T01:23:31;95603.39;;;-0.36;100.00
52935;BME280;38802;50.198;19.796;2022-12-07T01:26:00;95602.24;;;-0.37;100.00
52935;BME280;38802;50.198;19.796;2022-12-07T01:28:27;95599.85;;;-0.37;100.00
52935;BME280;38802;50.198;19.796;2022-12-07T01:30:59;95595.45;;;-0.37;100.00
52935;BME280;38802;50.198;19.796;2022-12-07T01:33:27;95594.41;;;-0.37;100.00
52935;BME280;38802;50.198;19.796;2022-12-07T01:36:03;95593.20;;;-0.37;100.00
52935;BME280;38802;50.198;19.796;2022-12-07T01:38:31;95588.38;;;-0.36;100.00
52935;BME280;38802;50.198;19.796;2022-12-07T01:40:59;95591.48;;;-0.37;100.00
52935;BME280;38802;50.198;19.796;2022-12-07T01:43:28;95590.84;;;-0.38;100.00
52935;BME280;38802;50.198;19.796;2022-12-07T01:45:56;95588.95;;;-0.37;100.00
52935;BME280;38802;50.198;19.796;2022-12-07T01:48:29;95587.80;;;-0.38;100.00
52935;BME280;38802;50.198;19.796;2022-12-07T01:51:01;95584.73;;;-0.38;100.00
52935;BME280;38802;50.198;19.796;2022-12-07T01:53:30;95583.17;;;-0.38;100.00
52935;BME280;38802;50.198;19.796;2022-12-07T01:56:00;95583.02;;;-0.38;100.00
52935;BME280;38802;50.198;19.796;2022-12-07T01:58:28;95582.33;;;-0.38;100.00
52935;BME280;38802;50.198;19.796;2022-12-07T02:00:55;95581.73;;;-0.39;100.00
52935;BME280;38802;50.198;19.796;2022-12-07T02:03:25;95583.04;;;-0.38;100.00
52935;BME280;38802;50.198;19.796;2022-12-07T02:05:54;95582.36;;;-0.38;100.00
52935;BME280;38802;50.198;19.796;2022-12-07T02:08:21;95580.92;;;-0.37;100.00
52935;BME280;38802;50.198;19.796;2022-12-07T02:10:49;95579.60;;;-0.38;100.00
52935;BME280;38802;50.198;19.796;2022-12-07T02:13:19;95577.87;;;-0.37;100.00
52935;BME280;38802;50.198;19.796;2022-12-07T02:24:24;95577.89;;;-0.38;100.00
52935;BME280;38802;50.198;19.796;2022-12-07T02:27:14;95579.39;;;-0.37;100.00
52935;BME280;38802;50.198;19.796;2022-12-07T02:30:03;95579.94;;;-0.38;100.00
52935;BME280;38802;50.198;19.796;2022-12-07T02:35:30;95577.17;;;-0.37;100.00
52935;BME280;38802;50.198;19.796;2022-12-07T02:40:39;95579.54;;;-0.37;100.00
52935;BME280;38802;50.198;19.796;2022-12-07T02:43:13;95579.17;;;-0.36;100.00
52935;BME280;38802;50.198;19.796;2022-12-07T02:45:44;95577.48;;;-0.37;100.00
52935;BME280;38802;50.198;19.796;2022-12-07T02:48:14;95576.48;;;-0.37;100.00
52935;BME280;38802;50.198;19.796;2022-12-07T02:51:00;95573.38;;;-0.36;100.00
52935;BME280;38802;50.198;19.796;2022-12-07T02:53:43;95566.35;;;-0.36;100.00
52935;BME280;38802;50.198;19.796;2022-12-07T03:01:39;95557.06;;;-0.34;100.00
52935;BME280;38802;50.198;19.796;2022-12-07T03:06:53;95556.33;;;-0.34;100.00
52935;BME280;38802;50.198;19.796;2022-12-07T03:10:13;95554.46;;;-0.34;100.00
52935;BME280;38802;50.198;19.796;2022-12-07T03:17:57;95553.73;;;-0.33;100.00
52935;BME280;38802;50.198;19.796;2022-12-07T03:20:27;95552.16;;;-0.32;100.00
52935;BME280;38802;50.198;19.796;2022-12-07T03:22:56;95550.45;;;-0.32;100.00
52935;BME280;38802;50.198;19.796;2022-12-07T03:25:25;95551.20;;;-0.33;100.00
52935;BME280;38802;50.198;19.796;2022-12-07T03:27:58;95553.73;;;-0.33;100.00
52935;BME280;38802;50.198;19.796;2022-12-07T03:30:32;95549.93;;;-0.32;100.00
52935;BME280;38802;50.198;19.796;2022-12-07T03:33:06;95550.91;;;-0.30;100.00
52935;BME280;38802;50.198;19.796;2022-12-07T03:36:05;95545.65;;;-0.31;100.00
52935;BME280;38802;50.198;19.796;2022-12-07T03:38:42;95546.38;;;-0.32;100.00
52935;BME280;38802;50.198;19.796;2022-12-07T03:41:27;95536.80;;;-0.32;100.00
52935;BME280;38802;50.198;19.796;2022-12-07T03:43:55;95538.30;;;-0.31;100.00
52935;BME280;38802;50.198;19.796;2022-12-07T03:54:52;95528.33;;;-0.33;100.00
52935;BME280;38802;50.198;19.796;2022-12-07T03:57:21;95532.60;;;-0.33;100.00
52935;BME280;38802;50.198;19.796;2022-12-07T03:59:49;95527.27;;;-0.33;100.00
52935;BME280;38802;50.198;19.796;2022-12-07T04:02:17;95524.56;;;-0.33;100.00
52935;BME280;38802;50.198;19.796;2022-12-07T04:04:45;95525.29;;;-0.33;100.00
52935;BME280;38802;50.198;19.796;2022-12-07T04:07:12;95528.57;;;-0.35;100.00
52935;BME280;38802;50.198;19.796;2022-12-07T04:09:39;95523.26;;;-0.34;100.00
52935;BME280;38802;50.198;19.796;2022-12-07T04:12:07;95519.84;;;-0.34;100.00
52935;BME280;38802;50.198;19.796;2022-12-07T04:14:34;95527.14;;;-0.34;100.00
52935;BME280;38802;50.198;19.796;2022-12-07T04:17:00;95525.28;;;-0.34;100.00
52935;BME280;38802;50.198;19.796;2022-12-07T04:19:32;95525.24;;;-0.33;100.00
52935;BME280;38802;50.198;19.796;2022-12-07T04:22:01;95521.66;;;-0.33;100.00
52935;BME280;38802;50.198;19.796;2022-12-07T04:24:28;95517.23;;;-0.33;100.00
52935;BME280;38802;50.198;19.796;2022-12-07T04:26:55;95516.70;;;-0.33;100.00
52935;BME280;38802;50.198;19.796;2022-12-07T04:29:23;95520.62;;;-0.33;100.00
52935;BME280;38802;50.198;19.796;2022-12-07T04:31:50;95516.87;;;-0.33;100.00
52935;BME280;38802;50.198;19.796;2022-12-07T04:34:17;95512.83;;;-0.34;100.00
52935;BME280;38802;50.198;19.796;2022-12-07T04:36:44;95513.87;;;-0.34;100.00
52935;BME280;38802;50.198;19.796;2022-12-07T04:39:31;95515.86;;;-0.33;100.00
52935;BME280;38802;50.198;19.796;2022-12-07T04:41:59;95517.92;;;-0.33;100.00
52935;BME280;38802;50.198;19.796;2022-12-07T04:44:27;95523.89;;;-0.33;100.00
52935;BME280;38802;50.198;19.796;2022-12-07T04:46:55;95524.48;;;-0.35;100.00
52935;BME280;38802;50.198;19.796;2022-12-07T04:49:24;95524.17;;;-0.35;100.00
52935;BME280;38802;50.198;19.796;2022-12-07T04:51:51;95524.39;;;-0.36;100.00
52935;BME280;38802;50.198;19.796;2022-12-07T04:54:18;95521.14;;;-0.36;100.00
52935;BME280;38802;50.198;19.796;2022-12-07T04:56:45;95518.41;;;-0.36;100.00
52935;BME280;38802;50.198;19.796;2022-12-07T04:59:13;95515.06;;;-0.37;100.00
52935;BME280;38802;50.198;19.796;2022-12-07T05:01:40;95515.04;;;-0.37;100.00
52935;BME280;38802;50.198;19.796;2022-12-07T05:04:08;95516.42;;;-0.40;100.00
52935;BME280;38802;50.198;19.796;2022-12-07T05:06:35;95515.39;;;-0.40;100.00
52935;BME280;38802;50.198;19.796;2022-12-07T05:09:03;95516.27;;;-0.41;100.00
52935;BME280;38802;50.198;19.796;2022-12-07T05:11:30;95516.18;;;-0.43;100.00
52935;BME280;38802;50.198;19.796;2022-12-07T05:14:16;95514.13;;;-0.42;100.00
52935;BME280;38802;50.198;19.796;2022-12-07T05:16:46;95514.46;;;-0.42;100.00
52935;BME280;38802;50.198;19.796;2022-12-07T05:19:13;95519.27;;;-0.43;100.00
52935;BME280;38802;50.198;19.796;2022-12-07T05:21:41;95517.94;;;-0.44;100.00
52935;BME280;38802;50.198;19.796;2022-12-07T05:24:10;95518.11;;;-0.44;100.00
52935;BME280;38802;50.198;19.796;2022-12-07T05:26:38;95522.73;;;-0.44;100.00
52935;BME280;38802;50.198;19.796;2022-12-07T05:29:05;95521.36;;;-0.44;100.00
52935;BME280;38802;50.198;19.796;2022-12-07T05:31:32;95523.30;;;-0.45;100.00
52935;BME280;38802;50.198;19.796;2022-12-07T05:34:00;95519.88;;;-0.45;100.00
52935;BME280;38802;50.198;19.796;2022-12-07T05:36:26;95515.84;;;-0.46;100.00
52935;BME280;38802;50.198;19.796;2022-12-07T05:38:55;95515.78;;;-0.45;100.00
52935;BME280;38802;50.198;19.796;2022-12-07T05:41:21;95515.77;;;-0.45;100.00
52935;BME280;38802;50.198;19.796;2022-12-07T05:44:07;95517.48;;;-0.45;100.00
52935;BME280;38802;50.198;19.796;2022-12-07T05:46:34;95515.34;;;-0.46;100.00
52935;BME280;38802;50.198;19.796;2022-12-07T05:49:02;95516.17;;;-0.46;100.00
52935;BME280;38802;50.198;19.796;2022-12-07T05:51:29;95517.46;;;-0.48;100.00
52935;BME280;38802;50.198;19.796;2022-12-07T05:53:56;95518.86;;;-0.49;100.00
52935;BME280;38802;50.198;19.796;2022-12-07T05:56:22;95520.39;;;-0.48;100.00
52935;BME280;38802;50.198;19.796;2022-12-07T05:58:49;95518.71;;;-0.49;100.00
52935;BME280;38802;50.198;19.796;2022-12-07T06:01:35;95522.48;;;-0.49;100.00
52935;BME280;38802;50.198;19.796;2022-12-07T06:04:01;95520.52;;;-0.51;100.00
52935;BME280;38802;50.198;19.796;2022-12-07T06:06:28;95519.35;;;-0.51;100.00
52935;BME280;38802;50.198;19.796;2022-12-07T06:08:55;95523.00;;;-0.53;100.00
52935;BME280;38802;50.198;19.796;2022-12-07T06:11:22;95524.77;;;-0.54;100.00
52935;BME280;38802;50.198;19.796;2022-12-07T06:14:07;95525.14;;;-0.54;100.00
52935;BME280;38802;50.198;19.796;2022-12-07T06:16:34;95525.02;;;-0.55;100.00
52935;BME280;38802;50.198;19.796;2022-12-07T06:19:01;95518.26;;;-0.57;100.00
52935;BME280;38802;50.198;19.796;2022-12-07T06:21:28;95521.31;;;-0.56;100.00
52935;BME280;38802;50.198;19.796;2022-12-07T06:23:55;95522.38;;;-0.58;100.00
52935;BME280;38802;50.198;19.796;2022-12-07T06:26:21;95519.25;;;-0.59;100.00
52935;BME280;38802;50.198;19.796;2022-12-07T06:28:48;95519.05;;;-0.59;100.00
52935;BME280;38802;50.198;19.796;2022-12-07T06:31:15;95519.55;;;-0.62;100.00
52935;BME280;38802;50.198;19.796;2022-12-07T06:33:42;95522.99;;;-0.63;100.00
52935;BME280;38802;50.198;19.796;2022-12-07T06:36:10;95528.52;;;-0.64;100.00
52935;BME280;38802;50.198;19.796;2022-12-07T06:38:37;95529.19;;;-0.64;100.00
52935;BME280;38802;50.198;19.796;2022-12-07T06:41:04;95529.90;;;-0.65;100.00
52935;BME280;38802;50.198;19.796;2022-12-07T06:43:31;95532.98;;;-0.65;100.00
52935;BME280;38802;50.198;19.796;2022-12-07T06:45:58;95535.09;;;-0.66;100.00
52935;BME280;38802;50.198;19.796;2022-12-07T06:48:25;95541.61;;;-0.67;100.00
52935;BME280;38802;50.198;19.796;2022-12-07T06:50:52;95540.91;;;-0.67;100.00
52935;BME280;38802;50.198;19.796;2022-12-07T06:53:22;95541.86;;;-0.68;100.00
52935;BME280;38802;50.198;19.796;2022-12-07T06:55:49;95542.80;;;-0.67;100.00
52935;BME280;38802;50.198;19.796;2022-12-07T06:58:16;95542.92;;;-0.69;100.00
52935;BME280;38802;50.198;19.796;2022-12-07T07:00:44;95540.18;;;-0.69;100.00
52935;BME280;38802;50.198;19.796;2022-12-07T07:03:11;95542.63;;;-0.70;100.00
52935;BME280;38802;50.198;19.796;2022-12-07T07:05:37;95541.94;;;-0.70;100.00
52935;BME280;38802;50.198;19.796;2022-12-07T07:08:04;95544.11;;;-0.69;100.00
52935;BME280;38802;50.198;19.796;2022-12-07T07:10:48;95544.27;;;-0.69;100.00
52935;BME280;38802;50.198;19.796;2022-12-07T07:13:15;95542.95;;;-0.70;100.00
52935;BME280;38802;50.198;19.796;2022-12-07T07:15:42;95547.90;;;-0.70;100.00
52935;BME280;38802;50.198;19.796;2022-12-07T07:18:09;95549.17;;;-0.71;100.00
52935;BME280;38802;50.198;19.796;2022-12-07T07:20:36;95551.45;;;-0.70;100.00
52935;BME280;38802;50.198;19.796;2022-12-07T07:23:03;95555.04;;;-0.69;100.00
52935;BME280;38802;50.198;19.796;2022-12-07T07:25:31;95549.98;;;-0.71;100.00
52935;BME280;38802;50.198;19.796;2022-12-07T07:27:58;95550.87;;;-0.71;100.00
52935;BME280;38802;50.198;19.796;2022-12-07T07:30:25;95550.63;;;-0.70;100.00
52935;BME280;38802;50.198;19.796;2022-12-07T07:32:59;95547.77;;;-0.71;100.00
52935;BME280;38802;50.198;19.796;2022-12-07T07:35:27;95545.15;;;-0.70;100.00
52935;BME280;38802;50.198;19.796;2022-12-07T07:37:55;95546.52;;;-0.70;100.00
52935;BME280;38802;50.198;19.796;2022-12-07T07:40:22;95549.13;;;-0.71;100.00
52935;BME280;38802;50.198;19.796;2022-12-07T07:42:50;95543.63;;;-0.70;100.00
52935;BME280;38802;50.198;19.796;2022-12-07T07:45:21;95545.58;;;-0.68;100.00
52935;BME280;38802;50.198;19.796;2022-12-07T07:47:49;95548.41;;;-0.66;100.00
52935;BME280;38802;50.198;19.796;2022-12-07T07:50:18;95551.88;;;-0.64;100.00
52935;BME280;38802;50.198;19.796;2022-12-07T07:52:45;95552.45;;;-0.61;100.00
52935;BME280;38802;50.198;19.796;2022-12-07T07:55:12;95556.20;;;-0.61;100.00
52935;BME280;38802;50.198;19.796;2022-12-07T07:57:40;95558.71;;;-0.61;100.00
52935;BME280;38802;50.198;19.796;2022-12-07T08:00:10;95561.94;;;-0.60;100.00
52935;BME280;38802;50.198;19.796;2022-12-07T08:02:41;95563.77;;;-0.59;100.00
52935;BME280;38802;50.198;19.796;2022-12-07T08:05:10;95566.77;;;-0.58;100.00
52935;BME280;38802;50.198;19.796;2022-12-07T08:07:38;95570.86;;;-0.58;100.00
52935;BME280;38802;50.198;19.796;2022-12-07T08:10:05;95572.67;;;-0.57;100.00
52935;BME280;38802;50.198;19.796;2022-12-07T08:12:36;95570.54;;;-0.55;100.00
52935;BME280;38802;50.198;19.796;2022-12-07T08:15:04;95569.44;;;-0.53;100.00
52935;BME280;38802;50.198;19.796;2022-12-07T08:17:30;95570.21;;;-0.52;100.00
52935;BME280;38802;50.198;19.796;2022-12-07T08:19:58;95572.70;;;-0.50;100.00
52935;BME280;38802;50.198;19.796;2022-12-07T08:22:24;95571.14;;;-0.50;100.00
52935;BME280;38802;50.198;19.796;2022-12-07T08:24:51;95577.70;;;-0.48;100.00
52935;BME280;38802;50.198;19.796;2022-12-07T08:27:18;95582.61;;;-0.47;100.00
52935;BME280;38802;50.198;19.796;2022-12-07T08:29:47;95574.01;;;-0.46;100.00
52935;BME280;38802;50.198;19.796;2022-12-07T08:32:14;95580.20;;;-0.43;100.00
52935;BME280;38802;50.198;19.796;2022-12-07T08:34:41;95580.36;;;-0.43;100.00
52935;BME280;38802;50.198;19.796;2022-12-07T08:37:08;95584.45;;;-0.42;100.00
52935;BME280;38802;50.198;19.796;2022-12-07T08:39:34;95584.02;;;-0.41;100.00
52935;BME280;38802;50.198;19.796;2022-12-07T08:42:01;95585.58;;;-0.38;100.00
52935;BME280;38802;50.198;19.796;2022-12-07T08:44:30;95589.67;;;-0.35;100.00
52935;BME280;38802;50.198;19.796;2022-12-07T08:47:00;95589.89;;;-0.32;100.00
52935;BME280;38802;50.198;19.796;2022-12-07T08:49:39;95598.20;;;-0.31;100.00
52935;BME280;38802;50.198;19.796;2022-12-07T08:52:08;95595.85;;;-0.28;100.00
52935;BME280;38802;50.198;19.796;2022-12-07T08:54:36;95596.01;;;-0.28;100.00
52935;BME280;38802;50.198;19.796;2022-12-07T08:57:05;95595.41;;;-0.26;100.00
52935;BME280;38802;50.198;19.796;2022-12-07T08:59:34;95596.27;;;-0.26;100.00
52935;BME280;38802;50.198;19.796;2022-12-07T09:02:04;95597.52;;;-0.28;100.00
52935;BME280;38802;50.198;19.796;2022-12-07T09:04:31;95597.86;;;-0.27;100.00
52935;BME280;38802;50.198;19.796;2022-12-07T09:06:58;95597.06;;;-0.28;100.00
52935;BME280;38802;50.198;19.796;2022-12-07T09:09:26;95601.02;;;-0.29;100.00
52935;BME280;38802;50.198;19.796;2022-12-07T09:11:52;95595.84;;;-0.28;100.00
52935;BME280;38802;50.198;19.796;2022-12-07T09:14:19;95597.94;;;-0.29;100.00
52935;BME280;38802;50.198;19.796;2022-12-07T09:16:46;95599.13;;;-0.29;100.00
52935;BME280;38802;50.198;19.796;2022-12-07T09:19:12;95596.06;;;-0.29;100.00
52935;BME280;38802;50.198;19.796;2022-12-07T09:21:39;95594.84;;;-0.28;100.00
52935;BME280;38802;50.198;19.796;2022-12-07T09:24:06;95595.67;;;-0.28;100.00
52935;BME280;38802;50.198;19.796;2022-12-07T09:26:33;95591.73;;;-0.28;100.00
52935;BME280;38802;50.198;19.796;2022-12-07T09:29:02;95587.27;;;-0.27;100.00
52935;BME280;38802;50.198;19.796;2022-12-07T09:31:29;95587.21;;;-0.26;100.00
52935;BME280;38802;50.198;19.796;2022-12-07T09:33:58;95590.40;;;-0.25;100.00
52935;BME280;38802;50.198;19.796;2022-12-07T09:36:26;95587.63;;;-0.24;100.00
52935;BME280;38802;50.198;19.796;2022-12-07T09:38:53;95591.40;;;-0.25;100.00
52935;BME280;38802;50.198;19.796;2022-12-07T09:41:21;95597.73;;;-0.25;100.00
52935;BME280;38802;50.198;19.796;2022-12-07T09:43:49;95593.85;;;-0.26;100.00
52935;BME280;38802;50.198;19.796;2022-12-07T09:46:18;95587.60;;;-0.27;100.00
52935;BME280;38802;50.198;19.796;2022-12-07T09:48:47;95594.64;;;-0.28;100.00
52935;BME280;38802;50.198;19.796;2022-12-07T09:51:18;95589.88;;;-0.28;100.00
52935;BME280;38802;50.198;19.796;2022-12-07T09:53:52;95590.29;;;-0.29;100.00
52935;BME280;38802;50.198;19.796;2022-12-07T09:56:20;95587.20;;;-0.29;100.00
52935;BME280;38802;50.198;19.796;2022-12-07T09:58:47;95586.08;;;-0.27;100.00
52935;BME280;38802;50.198;19.796;2022-12-07T10:01:17;95577.83;;;-0.26;100.00
52935;BME280;38802;50.198;19.796;2022-12-07T10:03:52;95579.59;;;-0.27;100.00
52935;BME280;38802;50.198;19.796;2022-12-07T10:06:21;95578.89;;;-0.27;100.00
52935;BME280;38802;50.198;19.796;2022-12-07T10:08:48;95577.33;;;-0.26;100.00
52935;BME280;38802;50.198;19.796;2022-12-07T10:11:15;95577.68;;;-0.27;100.00
52935;BME280;38802;50.198;19.796;2022-12-07T10:13:52;95576.98;;;-0.26;100.00
52935;BME280;38802;50.198;19.796;2022-12-07T10:19:22;95570.13;;;-0.22;100.00
52935;BME280;38802;50.198;19.796;2022-12-07T10:22:01;95565.66;;;-0.19;100.00
52935;BME280;38802;50.198;19.796;2022-12-07T10:24:29;95568.46;;;-0.17;100.00
52935;BME280;38802;50.198;19.796;2022-12-07T10:26:56;95566.25;;;-0.14;100.00
52935;BME280;38802;50.198;19.796;2022-12-07T10:29:34;95561.73;;;-0.12;100.00
52935;BME280;38802;50.198;19.796;2022-12-07T10:32:34;95554.80;;;-0.10;100.00
52935;BME280;38802;50.198;19.796;2022-12-07T10:35:23;95557.12;;;-0.09;100.00
52935;BME280;38802;50.198;19.796;2022-12-07T10:37:52;95553.20;;;-0.09;100.00
52935;BME280;38802;50.198;19.796;2022-12-07T10:48:47;95538.90;;;-0.07;100.00
52935;BME280;38802;50.198;19.796;2022-12-07T10:51:46;95537.54;;;-0.07;100.00
52935;BME280;38802;50.198;19.796;2022-12-07T10:54:39;95534.13;;;-0.04;100.00
52935;BME280;38802;50.198;19.796;2022-12-07T11:05:39;95525.40;;;0.05;100.00
52935;BME280;38802;50.198;19.796;2022-12-07T11:11:38;95526.48;;;0.06;100.00
52935;BME280;38802;50.198;19.796;2022-12-07T11:17:01;95523.41;;;0.10;100.00
52935;BME280;38802;50.198;19.796;2022-12-07T11:25:20;95520.13;;;0.10;100.00
52935;BME280;38802;50.198;19.796;2022-12-07T11:33:53;95521.80;;;0.11;100.00
52935;BME280;38802;50.198;19.796;2022-12-07T11:36:42;95522.54;;;0.10;100.00
52935;BME280;38802;50.198;19.796;2022-12-07T11:41:40;95519.36;;;0.09;100.00
52935;BME280;38802;50.198;19.796;2022-12-07T11:44:25;95520.05;;;0.08;100.00
52935;BME280;38802;50.198;19.796;2022-12-07T11:52:51;95508.89;;;0.10;100.00
52935;BME280;38802;50.198;19.796;2022-12-07T11:58:22;95504.39;;;0.08;100.00
52935;BME280;38802;50.198;19.796;2022-12-07T12:01:13;95503.77;;;0.10;100.00
52935;BME280;38802;50.198;19.796;2022-12-07T12:06:30;95502.95;;;0.09;100.00
52935;BME280;38802;50.198;19.796;2022-12-07T12:09:11;95504.23;;;0.11;100.00
52935;BME280;38802;50.198;19.796;2022-12-07T12:12:21;95501.48;;;0.14;100.00
52935;BME280;38802;50.198;19.796;2022-12-07T12:20:40;95496.13;;;0.31;100.00
52935;BME280;38802;50.198;19.796;2022-12-07T12:28:05;95489.96;;;0.31;100.00
52935;BME280;38802;50.198;19.796;2022-12-07T12:30:35;95491.50;;;0.31;100.00
52935;BME280;38802;50.198;19.796;2022-12-07T12:33:29;95494.89;;;0.31;100.00
52935;BME280;38802;50.198;19.796;2022-12-07T12:57:36;95484.15;;;0.31;100.00
52935;BME280;38802;50.198;19.796;2022-12-07T13:00:20;95478.48;;;0.31;100.00
52935;BME280;38802;50.198;19.796;2022-12-07T13:02:55;95480.48;;;0.33;100.00
52935;BME280;38802;50.198;19.796;2022-12-07T13:05:28;95479.59;;;0.33;100.00
52935;BME280;38802;50.198;19.796;2022-12-07T13:07:58;95483.83;;;0.34;100.00
52935;BME280;38802;50.198;19.796;2022-12-07T13:15:47;95483.29;;;0.35;100.00
52935;BME280;38802;50.198;19.796;2022-12-07T13:26:17;95479.96;;;0.33;100.00
52935;BME280;38802;50.198;19.796;2022-12-07T13:37:01;95492.83;;;0.26;100.00
52935;BME280;38802;50.198;19.796;2022-12-07T13:39:28;95492.69;;;0.25;100.00
52935;BME280;38802;50.198;19.796;2022-12-07T13:41:57;95491.99;;;0.25;100.00
52935;BME280;38802;50.198;19.796;2022-12-07T13:44:26;95495.80;;;0.24;100.00
52935;BME280;38802;50.198;19.796;2022-12-07T13:49:50;95498.10;;;0.23;100.00
52935;BME280;38802;50.198;19.796;2022-12-07T13:52:26;95500.21;;;0.21;100.00
52935;BME280;38802;50.198;19.796;2022-12-07T13:55:13;95501.65;;;0.20;100.00
52935;BME280;38802;50.198;19.796;2022-12-07T13:57:44;95506.77;;;0.17;100.00
52935;BME280;38802;50.198;19.796;2022-12-07T14:00:17;95511.63;;;0.16;100.00
52935;BME280;38802;50.198;19.796;2022-12-07T14:05:30;95507.67;;;0.13;100.00
52935;BME280;38802;50.198;19.796;2022-12-07T14:07:58;95505.79;;;0.13;100.00
52935;BME280;38802;50.198;19.796;2022-12-07T14:10:33;95509.94;;;0.12;100.00
52935;BME280;38802;50.198;19.796;2022-12-07T14:13:03;95507.10;;;0.11;100.00
52935;BME280;38802;50.198;19.796;2022-12-07T14:15:34;95501.80;;;0.11;100.00
52935;BME280;38802;50.198;19.796;2022-12-07T14:18:02;95503.91;;;0.10;100.00
52935;BME280;38802;50.198;19.796;2022-12-07T14:20:36;95505.30;;;0.10;100.00
52935;BME280;38802;50.198;19.796;2022-12-07T14:23:04;95502.58;;;0.09;100.00
52935;BME280;38802;50.198;19.796;2022-12-07T14:25:46;95502.61;;;0.09;100.00
52935;BME280;38802;50.198;19.796;2022-12-07T14:28:28;95495.78;;;0.09;100.00
52935;BME280;38802;50.198;19.796;2022-12-07T14:30:55;95502.55;;;0.10;100.00
52935;BME280;38802;50.198;19.796;2022-12-07T14:33:23;95501.68;;;0.10;100.00
52935;BME280;38802;50.198;19.796;2022-12-07T14:35:50;95501.69;;;0.10;100.00
52935;BME280;38802;50.198;19.796;2022-12-07T14:38:21;95506.48;;;0.10;100.00
52935;BME280;38802;50.198;19.796;2022-12-07T14:40:48;95507.52;;;0.10;100.00
52935;BME280;38802;50.198;19.796;2022-12-07T14:43:17;95506.33;;;0.10;100.00
52935;BME280;38802;50.198;19.796;2022-12-07T14:45:45;95505.50;;;0.09;100.00
52935;BME280;38802;50.198;19.796;2022-12-07T14:48:14;95507.74;;;0.09;100.00
52935;BME280;38802;50.198;19.796;2022-12-07T14:51:02;95507.06;;;0.09;100.00
52935;BME280;38802;50.198;19.796;2022-12-07T14:53:50;95508.60;;;0.09;100.00
52935;BME280;38802;50.198;19.796;2022-12-07T14:56:24;95514.23;;;0.09;100.00
52935;BME280;38802;50.198;19.796;2022-12-07T14:58:51;95512.54;;;0.09;100.00
52935;BME280;38802;50.198;19.796;2022-12-07T15:01:18;95517.36;;;0.08;100.00
52935;BME280;38802;50.198;19.796;2022-12-07T15:03:45;95518.05;;;0.08;100.00
52935;BME280;38802;50.198;19.796;2022-12-07T15:06:17;95518.56;;;0.08;100.00
52935;BME280;38802;50.198;19.796;2022-12-07T15:08:44;95515.31;;;0.08;100.00
52935;BME280;38802;50.198;19.796;2022-12-07T15:11:13;95515.38;;;0.06;100.00
52935;BME280;38802;50.198;19.796;2022-12-07T15:13:41;95519.35;;;0.06;100.00
52935;BME280;38802;50.198;19.796;2022-12-07T15:16:26;95517.34;;;0.05;100.00
52935;BME280;38802;50.198;19.796;2022-12-07T15:18:57;95521.48;;;0.04;100.00
52935;BME280;38802;50.198;19.796;2022-12-07T15:21:44;95525.98;;;0.03;100.00
52935;BME280;38802;50.198;19.796;2022-12-07T15:24:11;95522.38;;;0.03;100.00
52935;BME280;38802;50.198;19.796;2022-12-07T15:26:39;95527.56;;;0.02;100.00
52935;BME280;38802;50.198;19.796;2022-12-07T15:29:07;95522.02;;;0.00;100.00